Time;durP1;ratioP1;P1;durP2;ratioP2;P2;SDS_P1;SDS_P2;PMS_P1;PMS_P2;Temp;Humidity;BMP_temperature;BMP_pressure;BME280_temperature;BME280_humidity;BME280_pressure;Samples;Min_cycle;Max_cycle;Signal;HPM_P1;HPM_P2
2022/10/16 00:01:40;;;;;;;1.30;1.30;;;16.80;99.90;;;17.29;nan;100395.28;4995797;28;20642;-65
2022/10/16 00:04:07;;;;;;;2.50;1.50;;;16.80;99.90;;;17.27;nan;100397.25;5012140;28;20630;-64
2022/10/16 00:06:34;;;;;;;1.27;1.20;;;16.80;99.90;;;17.26;nan;100395.56;4990946;28;20645;-65
2022/10/16 00:09:01;;;;;;;1.40;1.40;;;16.80;99.90;;;17.28;nan;100391.81;5006780;28;20648;-65
2022/10/16 00:11:33;;;;;;;1.37;1.33;;;16.80;99.90;;;17.37;nan;100385.59;5003335;28;20688;-65
2022/10/16 00:14:02;;;;;;;1.40;1.30;;;16.80;99.90;;;17.36;nan;100378.66;5011926;28;20617;-64
2022/10/16 00:16:30;;;;;;;1.57;1.57;;;16.90;99.90;;;17.23;nan;100390.63;5012954;28;20617;-66
2022/10/16 00:18:57;;;;;;;1.80;1.70;;;16.80;99.90;;;17.32;nan;100389.66;5012724;28;20606;-65
2022/10/16 00:21:27;;;;;;;1.70;1.60;;;16.80;99.90;;;17.35;nan;100398.09;5012045;28;20680;-65
2022/10/16 00:24:01;;;;;;;1.43;1.43;;;16.80;99.90;;;17.36;nan;100407.66;4994553;28;20995;-65
2022/10/16 00:26:31;;;;;;;1.40;1.40;;;16.80;99.90;;;17.39;nan;100407.34;4988027;28;21198;-65
2022/10/16 00:28:59;;;;;;;1.63;1.63;;;16.80;99.90;;;17.43;nan;100405.22;4999931;28;20664;-65
2022/10/16 00:31:26;;;;;;;2.77;1.47;;;16.90;99.90;;;17.44;nan;100404.25;4992364;28;21240;-65
2022/10/16 00:33:54;;;;;;;2.10;1.90;;;16.90;99.90;;;17.42;nan;100409.66;4992800;28;20695;-65
2022/10/16 00:36:23;;;;;;;1.63;1.53;;;16.90;99.90;;;17.46;nan;100399.63;4993230;28;21045;-64
2022/10/16 00:38:55;;;;;;;1.50;1.40;;;16.90;99.90;;;17.40;nan;100392.34;5009347;28;20628;-64
2022/10/16 00:41:24;;;;;;;1.30;1.30;;;16.90;99.90;;;17.38;nan;100404.84;5010138;28;20673;-65
2022/10/16 00:43:58;;;;;;;2.67;1.83;;;16.90;99.90;;;17.18;nan;100414.84;5011719;28;21169;-64
2022/10/16 00:46:41;;;;;;;1.60;1.50;;;16.80;99.90;;;17.23;nan;100424.91;5004378;28;20630;-64
2022/10/16 00:49:15;;;;;;;1.70;1.57;;;16.80;99.90;;;17.25;nan;100425.59;4993602;28;21188;-65
2022/10/16 00:51:47;;;;;;;1.47;1.47;;;16.80;99.90;;;17.36;nan;100431.38;5010701;28;20713;-65
2022/10/16 00:54:28;;;;;;;2.63;1.43;;;16.80;99.90;;;17.37;nan;100424.31;5012453;28;20632;-64
2022/10/16 00:56:59;;;;;;;1.80;1.70;;;16.90;99.90;;;17.36;nan;100420.00;4993939;28;20634;-64
2022/10/16 00:59:41;;;;;;;3.20;1.83;;;16.90;99.90;;;17.29;nan;100409.25;4993163;28;21021;-65
2022/10/16 01:02:14;;;;;;;1.43;1.37;;;16.90;99.90;;;17.40;nan;100408.97;5005861;28;20668;-65
2022/10/16 01:04:52;;;;;;;1.40;1.37;;;16.90;99.90;;;17.42;nan;100400.94;4990151;28;21007;-64
2022/10/16 01:07:46;;;;;;;5.30;1.60;;;16.90;99.90;;;17.38;nan;100425.94;4992831;28;20618;-65
2022/10/16 01:10:41;;;;;;;1.90;1.47;;;16.90;99.90;;;17.46;nan;100434.72;5009867;28;20661;-65
2022/10/16 01:13:37;;;;;;;1.80;1.63;;;16.90;99.90;;;17.52;nan;100434.13;5010880;28;20679;-64
2022/10/16 01:16:09;;;;;;;4.30;1.50;;;16.90;99.90;;;17.53;nan;100425.22;4994193;28;20614;-64
2022/10/16 01:18:44;;;;;;;1.50;1.40;;;16.90;99.90;;;17.53;nan;100425.22;5009239;28;20675;-64
2022/10/16 01:21:22;;;;;;;1.13;1.13;;;17.00;99.90;;;17.53;nan;100425.22;4993290;28;20668;-64
2022/10/16 01:24:18;;;;;;;1.70;1.60;;;17.00;99.90;;;17.56;nan;100426.72;4984236;28;21191;-65
2022/10/16 01:27:10;;;;;;;1.60;1.50;;;17.00;99.90;;;17.51;nan;100427.19;4991755;28;20610;-65
2022/10/16 01:29:53;;;;;;;1.93;1.53;;;17.00;99.90;;;17.56;nan;100432.00;4986696;28;21236;-65
2022/10/16 01:32:41;;;;;;;4.90;1.70;;;17.00;99.90;;;17.53;nan;100435.78;4991893;28;20981;-63
2022/10/16 01:35:25;;;;;;;1.60;1.47;;;17.00;99.90;;;17.52;nan;100433.31;4993137;28;21263;-65
2022/10/16 01:37:58;;;;;;;1.63;1.53;;;17.00;99.90;;;17.51;nan;100439.56;4991799;28;21186;-65
2022/10/16 01:40:27;;;;;;;1.50;1.40;;;17.00;99.90;;;17.49;nan;100442.31;4992143;28;20669;-65
2022/10/16 01:43:11;;;;;;;1.43;1.40;;;17.00;99.90;;;17.50;nan;100445.84;4978662;28;21012;-64
2022/10/16 01:45:41;;;;;;;2.03;1.43;;;17.00;99.90;;;17.43;nan;100445.59;4991846;28;20611;-64
2022/10/16 01:48:12;;;;;;;3.30;1.37;;;17.00;99.90;;;17.44;nan;100446.44;4990517;28;20614;-65
2022/10/16 01:50:41;;;;;;;1.70;1.47;;;17.00;99.90;;;17.36;nan;100431.38;4991899;28;20650;-64
2022/10/16 01:53:12;;;;;;;1.90;1.70;;;16.90;99.90;;;17.40;nan;100445.91;4990513;28;21232;-65
2022/10/16 01:55:45;;;;;;;2.10;1.53;;;16.90;99.90;;;17.38;nan;100439.97;4993555;28;21174;-64
2022/10/16 01:58:14;;;;;;;1.60;1.43;;;16.90;99.90;;;17.39;nan;100440.81;4988756;28;20643;-64
2022/10/16 02:00:45;;;;;;;1.40;1.40;;;16.90;99.90;;;17.38;nan;100442.59;4989991;28;20677;-64
2022/10/16 02:03:16;;;;;;;1.70;1.60;;;16.90;99.90;;;17.39;nan;100432.88;4989586;28;21170;-64
2022/10/16 02:05:54;;;;;;;2.90;1.50;;;16.90;99.90;;;17.41;nan;100430.91;4992091;28;21174;-64
2022/10/16 02:08:25;;;;;;;2.53;1.50;;;16.90;99.90;;;17.39;nan;100435.53;4993012;28;20618;-64
2022/10/16 02:10:52;;;;;;;1.77;1.67;;;16.90;99.90;;;17.36;nan;100428.75;4983894;28;20658;-65
2022/10/16 02:13:26;;;;;;;1.80;1.70;;;16.90;99.90;;;17.21;nan;100430.31;4991109;28;20631;-63
2022/10/16 02:15:53;;;;;;;2.20;1.67;;;16.80;99.90;;;17.23;nan;100427.56;5009430;28;20618;-64
2022/10/16 02:18:20;;;;;;;2.20;2.00;;;16.80;99.90;;;17.20;nan;100419.94;5012572;28;20627;-64
2022/10/16 02:21:19;;;;;;;1.87;1.77;;;16.80;99.90;;;17.10;nan;100433.22;5014289;28;21228;-64
2022/10/16 02:24:35;;;;;;;1.33;1.33;;;16.70;99.90;;;17.12;nan;100427.81;4995472;28;20618;-64
2022/10/16 02:27:20;;;;;;;1.60;1.27;;;16.70;99.90;;;16.96;nan;100433.81;4955353;28;20721;-64
2022/10/16 02:29:58;;;;;;;2.60;2.17;;;16.60;99.90;;;16.92;nan;100441.22;5006410;28;20643;-64
2022/10/16 02:32:30;;;;;;;13.00;1.80;;;16.60;99.90;;;16.82;nan;100435.19;4996515;28;20634;-64
2022/10/16 02:34:59;;;;;;;1.50;1.40;;;16.50;99.90;;;16.71;nan;100430.22;4980110;28;20691;-64
2022/10/16 02:37:27;;;;;;;2.53;1.97;;;16.50;99.90;;;16.77;nan;100429.59;4996260;28;20629;-63
2022/10/16 02:39:56;;;;;;;2.40;1.93;;;16.40;99.90;;;16.94;nan;100433.97;4995721;28;20643;-64
2022/10/16 02:42:32;;;;;;;1.67;1.57;;;16.50;99.90;;;16.98;nan;100435.31;4996676;28;20606;-64
2022/10/16 02:44:59;;;;;;;2.03;1.83;;;16.50;99.90;;;16.99;nan;100434.31;5013290;28;20633;-64
2022/10/16 02:47:26;;;;;;;1.63;1.50;;;16.50;99.90;;;16.99;nan;100425.63;5013321;28;20683;-64
2022/10/16 02:49:53;;;;;;;1.67;1.57;;;16.50;99.90;;;16.99;nan;100431.69;5012809;28;20625;-64
2022/10/16 02:52:20;;;;;;;2.27;1.33;;;16.50;99.90;;;16.93;nan;100439.38;5013875;28;20618;-64
2022/10/16 02:54:47;;;;;;;1.47;1.47;;;16.50;99.90;;;16.98;nan;100447.66;5013464;28;21075;-64
2022/10/16 02:57:14;;;;;;;1.87;1.77;;;16.50;99.90;;;17.07;nan;100446.75;5013123;28;20621;-64
2022/10/16 02:59:41;;;;;;;1.80;1.70;;;16.60;99.90;;;17.12;nan;100447.09;4983840;28;20647;-65
2022/10/16 03:02:09;;;;;;;3.73;1.37;;;16.60;99.90;;;17.10;nan;100433.22;4989832;28;21121;-64
2022/10/16 03:04:36;;;;;;;1.40;1.30;;;16.60;99.90;;;16.96;nan;100425.91;4992975;28;21192;-64
2022/10/16 03:07:04;;;;;;;1.80;1.70;;;16.60;99.90;;;16.97;nan;100432.84;5006719;28;20640;-64
2022/10/16 03:09:31;;;;;;;1.50;1.40;;;16.60;99.90;;;16.99;nan;100434.31;5007359;28;20631;-65
2022/10/16 03:11:58;;;;;;;1.63;1.63;;;16.50;99.90;;;17.02;nan;100441.94;4994731;28;20649;-64
2022/10/16 03:14:25;;;;;;;1.47;1.47;;;16.50;99.90;;;17.05;nan;100433.72;4995056;28;20648;-64
2022/10/16 03:16:52;;;;;;;1.60;1.60;;;16.50;99.90;;;17.12;nan;100444.47;5013359;28;20621;-64
2022/10/16 03:19:19;;;;;;;1.57;1.57;;;16.60;99.90;;;17.12;nan;100441.00;5011656;28;20645;-64
2022/10/16 03:21:46;;;;;;;1.67;1.57;;;16.60;99.90;;;17.18;nan;100450.91;5012135;28;20670;-64
2022/10/16 03:24:13;;;;;;;1.30;1.30;;;16.60;99.90;;;17.20;nan;100448.94;5012130;28;20630;-64
2022/10/16 03:26:40;;;;;;;4.97;1.40;;;16.60;99.90;;;17.21;nan;100453.22;5013446;28;20620;-64
2022/10/16 03:29:07;;;;;;;1.67;1.57;;;16.70;99.90;;;17.25;nan;100442.22;4978158;28;20630;-64
2022/10/16 03:31:34;;;;;;;1.60;1.50;;;16.60;99.90;;;17.19;nan;100445.47;4999566;28;20686;-64
2022/10/16 03:34:01;;;;;;;6.77;1.47;;;16.70;99.90;;;17.23;nan;100446.00;5011593;28;20621;-64
2022/10/16 03:36:28;;;;;;;1.83;1.73;;;16.70;99.90;;;17.28;nan;100441.91;5013362;28;20994;-64
2022/10/16 03:38:55;;;;;;;1.30;1.20;;;16.70;99.90;;;17.25;nan;100455.38;5010800;28;20691;-64
2022/10/16 03:41:22;;;;;;;1.17;1.17;;;16.70;99.90;;;17.25;nan;100452.75;5031771;23;20703;-67
2022/10/16 03:43:48;;;;;;;1.57;1.47;;;16.70;99.90;;;17.24;nan;100461.66;4997786;28;20621;-65
2022/10/16 03:46:15;;;;;;;2.07;1.53;;;16.70;99.90;;;17.27;nan;100461.34;5011509;28;20622;-65
2022/10/16 03:48:42;;;;;;;1.30;1.20;;;16.70;99.90;;;17.29;nan;100469.09;5012844;28;20612;-65
2022/10/16 03:51:09;;;;;;;3.93;1.83;;;16.70;99.90;;;17.30;nan;100468.09;5012131;28;20665;-65
2022/10/16 03:53:36;;;;;;;1.97;1.87;;;16.80;99.90;;;17.29;nan;100474.38;5012801;28;20648;-63
2022/10/16 03:56:03;;;;;;;1.60;1.43;;;16.70;99.90;;;17.29;nan;100480.47;5011166;28;20621;-64
2022/10/16 03:58:30;;;;;;;1.50;1.40;;;16.80;99.90;;;17.30;nan;100482.13;5016014;28;20629;-66
2022/10/16 04:00:57;;;;;;;1.70;1.60;;;16.80;99.90;;;17.32;nan;100476.69;5031498;28;20668;-65
2022/10/16 04:03:24;;;;;;;1.53;1.40;;;16.80;99.90;;;17.31;nan;100465.34;5013270;28;21193;-65
2022/10/16 04:05:51;;;;;;;1.50;1.40;;;16.80;99.90;;;17.29;nan;100469.09;5017809;28;20636;-65
2022/10/16 04:08:18;;;;;;;1.57;1.50;;;16.80;99.90;;;17.24;nan;100472.22;5030998;28;21085;-65
2022/10/16 04:10:45;;;;;;;4.63;1.70;;;16.80;99.90;;;17.26;nan;100472.88;5030931;28;20637;-66
2022/10/16 04:13:12;;;;;;;2.90;1.30;;;16.70;99.90;;;17.28;nan;100467.44;5028813;28;20637;-65
2022/10/16 04:15:39;;;;;;;1.27;1.27;;;16.70;99.90;;;17.24;nan;100466.09;5032176;28;20628;-65
2022/10/16 04:18:07;;;;;;;1.23;1.23;;;16.70;99.90;;;17.12;nan;100473.47;5014173;28;20643;-67
2022/10/16 04:20:34;;;;;;;1.17;1.17;;;16.70;99.90;;;17.03;nan;100485.78;4993818;28;20651;-65
2022/10/16 04:23:01;;;;;;;1.40;1.30;;;16.70;99.90;;;17.05;nan;100486.44;5011564;28;20638;-65
2022/10/16 04:25:28;;;;;;;2.60;1.33;;;16.70;99.90;;;16.99;nan;100479.13;5012071;28;20613;-65
2022/10/16 04:27:55;;;;;;;2.57;1.53;;;16.60;99.90;;;16.81;nan;100470.47;5010399;28;21045;-66
2022/10/16 04:30:22;;;;;;;1.60;1.50;;;16.60;99.90;;;16.88;nan;100471.50;5026205;28;20641;-64
2022/10/16 04:32:51;;;;;;;1.50;1.40;;;16.50;99.90;;;16.86;nan;100477.91;5010591;28;20636;-65
2022/10/16 04:35:20;;;;;;;1.20;1.20;;;16.40;99.90;;;16.87;nan;100477.75;5010255;28;21025;-64
2022/10/16 04:37:47;;;;;;;1.53;1.47;;;16.50;99.90;;;16.79;nan;100469.78;4993534;28;20610;-65
2022/10/16 04:40:15;;;;;;;1.57;1.50;;;16.50;99.90;;;16.93;nan;100490.28;4993414;28;20644;-65
2022/10/16 04:42:41;;;;;;;1.77;1.67;;;16.50;99.90;;;16.90;nan;100485.34;5011310;28;20673;-65
2022/10/16 04:45:09;;;;;;;1.93;1.37;;;16.50;99.90;;;16.93;nan;100479.75;5025509;28;20631;-64
2022/10/16 04:47:39;;;;;;;1.90;1.77;;;16.50;99.90;;;16.95;nan;100471.72;5031217;28;20608;-65
2022/10/16 04:50:06;;;;;;;1.80;1.70;;;16.50;99.90;;;16.97;nan;100480.28;5018335;28;20630;-65
2022/10/16 04:52:34;;;;;;;2.10;2.00;;;16.50;99.90;;;16.97;nan;100485.56;5011455;28;21221;-65
2022/10/16 04:55:06;;;;;;;1.90;1.80;;;16.50;99.90;;;16.94;nan;100478.78;5010773;28;20634;-65
2022/10/16 04:57:33;;;;;;;2.83;1.37;;;16.50;99.90;;;17.01;nan;100471.09;5010930;28;21231;-65
2022/10/16 05:00:00;;;;;;;1.90;1.80;;;16.50;99.90;;;17.00;nan;100457.06;5022453;28;20639;-65
2022/10/16 05:02:27;;;;;;;1.77;1.67;;;16.50;99.90;;;16.99;nan;100468.59;5004034;28;20676;-65
2022/10/16 05:04:54;;;;;;;2.03;1.93;;;16.50;99.90;;;16.95;nan;100467.25;5017863;28;20680;-65
2022/10/16 05:07:21;;;;;;;1.60;1.50;;;16.50;99.90;;;16.99;nan;100470.41;5010800;28;20629;-65
2022/10/16 05:09:48;;;;;;;1.77;1.67;;;16.50;99.90;;;17.06;nan;100474.91;5010097;28;21014;-66
2022/10/16 05:12:15;;;;;;;2.10;2.00;;;16.50;99.90;;;16.95;nan;100467.25;5011380;28;20665;-65
2022/10/16 05:14:42;;;;;;;1.47;1.47;;;16.50;99.90;;;16.82;nan;100456.28;4992336;28;20634;-65
2022/10/16 05:17:09;;;;;;;1.73;1.63;;;16.50;99.90;;;16.73;nan;100462.50;5009629;28;20629;-65
2022/10/16 05:19:36;;;;;;;2.97;2.33;;;16.40;99.90;;;16.64;nan;100452.88;5010480;28;20618;-65
2022/10/16 05:22:03;;;;;;;2.40;2.20;;;16.30;99.90;;;16.62;nan;100444.31;5009796;28;20727;-65
2022/10/16 05:24:29;;;;;;;2.73;2.40;;;16.30;99.90;;;16.69;nan;100434.81;4994222;28;21387;-65
2022/10/16 05:26:56;;;;;;;3.00;2.60;;;16.30;99.90;;;16.89;nan;100438.88;5012358;28;20626;-65
2022/10/16 05:29:23;;;;;;;3.10;2.90;;;16.30;99.90;;;16.96;nan;100453.09;5010192;28;21017;-65
2022/10/16 05:31:54;;;;;;;3.60;2.83;;;16.40;99.90;;;16.92;nan;100459.66;5028337;28;20667;-65
2022/10/16 05:34:21;;;;;;;4.13;3.73;;;16.40;99.90;;;16.92;nan;100467.56;5005771;28;20638;-64
2022/10/16 05:36:48;;;;;;;3.70;3.17;;;16.40;99.90;;;16.89;nan;100475.78;5015530;28;20647;-65
2022/10/16 05:39:16;;;;;;;6.13;3.10;;;16.40;99.90;;;16.92;nan;100486.03;5029582;28;20633;-65
2022/10/16 05:41:43;;;;;;;3.50;3.20;;;16.40;99.90;;;16.96;nan;100497.91;5023349;28;21061;-65
2022/10/16 05:44:10;;;;;;;9.20;3.20;;;16.40;99.90;;;16.97;nan;100496.91;5011133;28;20614;-65
2022/10/16 05:46:37;;;;;;;5.27;2.87;;;16.50;99.90;;;17.02;nan;100505.19;5009307;28;20993;-64
2022/10/16 05:49:04;;;;;;;2.30;2.17;;;16.40;99.90;;;17.02;nan;100499.09;5011203;28;20721;-66
2022/10/16 05:51:31;;;;;;;3.23;2.97;;;16.50;99.90;;;17.01;nan;100503.53;5010194;28;20645;-64
2022/10/16 05:53:58;;;;;;;2.90;2.70;;;16.50;99.90;;;17.05;nan;100489.09;5014798;28;20634;-64
2022/10/16 05:56:25;;;;;;;6.10;2.90;;;16.50;99.90;;;17.08;nan;100500.28;5014183;28;21169;-65
2022/10/16 05:58:52;;;;;;;5.33;3.00;;;16.60;99.90;;;17.06;nan;100505.69;5012007;28;20637;-64
2022/10/16 06:01:20;;;;;;;3.20;2.90;;;16.50;99.90;;;17.08;nan;100509.00;5029003;28;21030;-66
2022/10/16 06:03:47;;;;;;;3.00;2.80;;;16.60;99.90;;;17.08;nan;100520.38;5014395;28;20633;-65
2022/10/16 06:06:21;;;;;;;3.17;2.90;;;16.50;99.90;;;17.08;nan;100525.66;5014398;28;20622;-64
2022/10/16 06:08:49;;;;;;;4.40;3.00;;;16.60;99.90;;;17.11;nan;100528.97;5013965;28;20637;-64
2022/10/16 06:11:28;;;;;;;3.97;2.80;;;16.50;99.90;;;17.11;nan;100526.34;5014529;28;20651;-65
2022/10/16 06:13:58;;;;;;;2.80;2.47;;;16.60;99.90;;;17.14;nan;100528.66;5028489;28;21192;-65
2022/10/16 06:16:26;;;;;;;6.20;2.93;;;16.60;99.90;;;17.12;nan;100535.91;5033505;28;20663;-66
2022/10/16 06:18:55;;;;;;;9.00;2.77;;;16.60;99.90;;;17.14;nan;100533.94;5018957;28;20644;-66
2022/10/16 06:21:27;;;;;;;4.63;2.77;;;16.60;99.90;;;17.17;nan;100533.63;5013899;28;20669;-65
2022/10/16 06:23:55;;;;;;;2.43;2.23;;;16.60;99.90;;;17.23;nan;100533.03;5005294;28;20633;-63
2022/10/16 06:26:29;;;;;;;3.13;2.70;;;16.60;99.90;;;17.19;nan;100535.13;5014259;28;20625;-65
2022/10/16 06:28:58;;;;;;;23.30;5.60;;;16.60;99.90;;;17.20;nan;100549.13;5017090;28;20637;-65
2022/10/16 06:31:28;;;;;;;4.20;3.50;;;16.70;99.90;;;17.24;nan;100542.56;5035282;28;20671;-65
2022/10/16 06:33:56;;;;;;;3.53;3.17;;;16.70;99.90;;;17.20;nan;100543.88;5029633;28;20642;-66
2022/10/16 06:36:24;;;;;;;3.93;2.70;;;16.70;99.90;;;17.25;nan;100552.16;4995805;28;20636;-64
2022/10/16 06:38:51;;;;;;;2.67;2.47;;;16.70;99.90;;;17.24;nan;100559.22;5012987;28;20640;-67
2022/10/16 06:41:21;;;;;;;2.43;2.23;;;16.70;99.90;;;17.25;nan;100560.06;5015772;28;20679;-66
2022/10/16 06:43:48;;;;;;;2.57;2.37;;;16.70;99.90;;;17.27;nan;100558.09;5028552;28;20684;-64
2022/10/16 06:46:20;;;;;;;2.93;2.70;;;16.70;99.90;;;17.27;nan;100566.00;5029464;28;20626;-65
2022/10/16 06:48:47;;;;;;;3.30;2.43;;;16.70;99.90;;;17.30;nan;100560.41;5030620;28;20621;-65
2022/10/16 06:51:19;;;;;;;5.13;2.33;;;16.70;99.90;;;17.29;nan;100564.03;5019612;28;20695;-65
2022/10/16 06:53:49;;;;;;;2.87;2.60;;;16.70;99.90;;;17.31;nan;100562.06;5012904;28;20635;-65
2022/10/16 06:56:33;;;;;;;3.40;2.80;;;16.70;99.90;;;17.36;nan;100557.16;5033020;28;21339;-63
2022/10/16 06:59:00;;;;;;;6.53;2.63;;;16.80;99.90;;;17.38;nan;100560.44;5014062;28;20630;-65
2022/10/16 07:01:28;;;;;;;2.50;2.30;;;16.80;99.90;;;17.39;nan;100567.41;5028314;28;21054;-64
2022/10/16 07:03:55;;;;;;;2.20;2.10;;;16.80;99.90;;;17.38;nan;100579.75;5028259;28;20629;-64
2022/10/16 07:06:24;;;;;;;2.30;2.20;;;16.80;99.90;;;17.44;nan;100580.97;5014347;28;20630;-64
2022/10/16 07:08:52;;;;;;;6.60;2.50;;;16.80;99.90;;;17.46;nan;100586.91;5011850;28;21189;-63
2022/10/16 07:11:22;;;;;;;2.20;2.10;;;16.90;99.90;;;17.43;nan;100592.47;4996083;28;21026;-64
2022/10/16 07:13:51;;;;;;;2.60;2.40;;;16.90;99.90;;;17.44;nan;100602.06;5012091;28;20640;-64
2022/10/16 07:16:27;;;;;;;3.47;2.60;;;16.90;99.90;;;17.50;nan;100607.56;5012394;28;21325;-65
2022/10/16 07:18:58;;;;;;;2.30;2.10;;;16.90;99.90;;;17.51;nan;100601.31;5012089;28;21020;-65
2022/10/16 07:21:28;;;;;;;2.77;2.23;;;17.00;99.90;;;17.48;nan;100604.19;5013379;28;20645;-64
2022/10/16 07:24:00;;;;;;;2.80;2.50;;;16.90;99.90;;;17.29;nan;100606.22;5012303;28;20625;-64
2022/10/16 07:26:31;;;;;;;8.50;3.47;;;16.90;99.90;;;17.46;nan;100611.44;5013370;28;20613;-64
2022/10/16 07:28:58;;;;;;;3.37;3.13;;;16.90;99.90;;;17.59;nan;100616.38;5012005;28;20610;-64
2022/10/16 07:31:25;;;;;;;2.70;2.50;;;16.90;99.90;;;17.63;nan;100620.34;5030784;28;20999;-64
2022/10/16 07:33:53;;;;;;;2.60;2.40;;;17.00;99.90;;;17.58;nan;100627.88;5023566;28;21217;-64
2022/10/16 07:36:21;;;;;;;2.30;2.17;;;17.00;99.90;;;17.50;nan;100622.56;5016697;28;21244;-64
2022/10/16 07:38:49;;;;;;;2.37;2.23;;;17.00;99.90;;;17.53;nan;100616.97;5012060;28;20636;-64
2022/10/16 07:41:19;;;;;;;2.60;2.20;;;17.00;99.90;;;17.51;nan;100621.56;5022034;28;20680;-64
2022/10/16 07:43:48;;;;;;;3.20;2.10;;;17.00;99.90;;;17.40;nan;100625.25;5032245;28;20631;-62
2022/10/16 07:46:17;;;;;;;2.57;2.20;;;16.90;99.90;;;17.29;nan;100620.22;5012705;28;21124;-65
2022/10/16 07:48:46;;;;;;;1.90;1.77;;;16.90;99.90;;;17.32;nan;100619.09;5013760;28;20644;-65
2022/10/16 07:51:17;;;;;;;3.47;2.97;;;16.90;99.90;;;17.27;nan;100624.81;5031819;28;20694;-64
2022/10/16 07:53:45;;;;;;;3.77;2.57;;;16.90;99.90;;;17.29;nan;100628.13;4998019;28;20633;-64
2022/10/16 07:56:13;;;;;;;3.60;2.27;;;16.80;99.90;;;17.25;nan;100636.53;5012225;28;21035;-65
2022/10/16 07:58:41;;;;;;;1.63;1.53;;;16.80;99.90;;;17.38;nan;100640.41;5021089;28;20633;-65
2022/10/16 08:01:11;;;;;;;2.10;2.00;;;16.90;99.90;;;17.33;nan;100633.94;5022084;28;20688;-65
2022/10/16 08:03:38;;;;;;;3.70;2.17;;;16.80;99.90;;;17.36;nan;100631.00;5013090;28;20659;-65
2022/10/16 08:06:05;;;;;;;2.37;2.00;;;16.90;99.90;;;17.43;nan;100634.69;5018778;28;20640;-66
2022/10/16 08:08:32;;;;;;;1.97;1.87;;;16.90;99.90;;;17.49;nan;100640.16;5023049;28;20629;-66
2022/10/16 08:10:59;;;;;;;2.13;2.00;;;17.00;99.90;;;17.37;nan;100643.22;5010087;28;20664;-65
2022/10/16 08:13:26;;;;;;;1.70;1.60;;;16.90;99.90;;;17.29;nan;100648.44;5011392;28;20640;-66
2022/10/16 08:15:55;;;;;;;1.33;1.30;;;16.90;99.90;;;17.41;nan;100647.19;4994175;28;20637;-65
2022/10/16 08:18:22;;;;;;;3.17;2.43;;;16.90;99.90;;;17.46;nan;100661.56;5011241;28;20652;-66
2022/10/16 08:20:59;;;;;;;3.30;2.30;;;16.90;99.90;;;17.51;nan;100669.06;5016407;28;20660;-64
2022/10/16 08:23:27;;;;;;;1.80;1.70;;;17.00;99.90;;;17.56;nan;100666.78;5011526;28;21228;-65
2022/10/16 08:26:01;;;;;;;2.50;2.07;;;17.00;99.90;;;17.50;nan;100677.97;5010528;28;20678;-66
2022/10/16 08:28:27;;;;;;;2.40;1.93;;;17.00;99.90;;;17.31;nan;100691.28;4996194;28;20656;-66
2022/10/16 08:30:56;;;;;;;3.80;2.30;;;16.90;99.90;;;17.47;nan;100709.88;5026217;28;20663;-65
2022/10/16 08:33:23;;;;;;;2.97;2.43;;;17.00;99.90;;;17.45;nan;100717.97;5028145;28;20629;-65
2022/10/16 08:35:54;;;;;;;6.03;2.33;;;16.90;99.90;;;17.52;nan;100724.31;5020550;28;20626;-66
2022/10/16 08:38:21;;;;;;;3.87;2.50;;;16.90;99.90;;;17.57;nan;100739.66;5018810;28;20644;-65
2022/10/16 08:40:48;;;;;;;2.47;2.30;;;17.00;99.90;;;17.60;nan;100769.22;5011919;28;20673;-67
2022/10/16 08:44:03;;;;;;;1.83;1.73;;;17.00;99.90;;;17.26;nan;100727.81;5013280;28;21240;-66
2022/10/16 08:47:03;;;;;;;1.90;1.80;;;17.00;99.90;;;16.93;nan;100710.84;4989740;28;20625;-65
2022/10/16 08:49:31;;;;;;;1.80;1.67;;;16.80;99.90;;;16.75;nan;100707.38;5005512;28;20637;-67
2022/10/16 08:51:59;;;;;;;3.70;1.70;;;16.60;99.90;;;16.76;nan;100722.22;5003966;28;20669;-66
2022/10/16 08:54:40;;;;;;;4.37;2.40;;;16.50;99.90;;;16.75;nan;100718.75;5012127;28;20641;-66
2022/10/16 08:57:13;;;;;;;2.57;2.17;;;16.40;99.90;;;16.79;nan;100712.19;5005176;28;20643;-65
2022/10/16 08:59:44;;;;;;;3.00;2.23;;;16.40;99.90;;;16.86;nan;100713.28;5003856;28;20640;-66
2022/10/16 09:02:26;;;;;;;2.40;2.20;;;16.50;99.90;;;17.03;nan;100727.44;5009334;28;21064;-66
2022/10/16 09:05:33;;;;;;;2.47;2.23;;;16.50;99.90;;;17.08;nan;100737.56;5016897;28;20634;-66
2022/10/16 09:08:27;;;;;;;12.87;7.70;;;16.60;99.90;;;17.24;nan;100737.69;5002626;28;21215;-64
2022/10/16 09:11:22;;;;;;;4.87;2.87;;;16.70;99.90;;;17.40;nan;100735.22;5003419;28;20645;-66
2022/10/16 09:14:26;;;;;;;5.83;2.97;;;16.80;99.90;;;17.58;nan;100743.97;5010448;28;21010;-67
2022/10/16 09:17:06;;;;;;;2.60;2.50;;;16.90;99.90;;;17.83;nan;100738.75;5003504;28;20691;-66
2022/10/16 09:19:51;;;;;;;2.80;2.50;;;17.10;99.90;;;18.09;nan;100736.09;5003808;28;20621;-66
2022/10/16 09:22:28;;;;;;;3.57;2.30;;;17.30;99.90;;;18.22;nan;100739.16;4998025;28;20665;-66
2022/10/16 09:25:11;;;;;;;2.60;2.17;;;17.50;99.90;;;18.44;nan;100753.69;4992779;28;20630;-65
2022/10/16 09:27:38;;;;;;;2.93;2.63;;;17.60;99.90;;;18.93;nan;100754.69;4993468;28;21174;-67
2022/10/16 09:30:15;;;;;;;2.40;2.20;;;17.90;99.90;;;19.07;nan;100757.53;5016813;28;20637;-67
2022/10/16 09:32:45;;;;;;;2.77;2.57;;;18.10;99.90;;;18.83;nan;100753.97;5019802;28;20648;-65
2022/10/16 09:35:32;;;;;;;2.43;2.30;;;18.20;99.90;;;19.17;nan;100757.38;5010365;28;20643;-66
2022/10/16 09:37:59;;;;;;;3.27;2.80;;;18.30;99.90;;;19.80;nan;100755.81;5002534;28;20695;-64
2022/10/16 09:40:34;;;;;;;3.30;3.00;;;18.70;99.90;;;21.84;nan;100768.88;5016363;28;21016;-66
2022/10/16 09:43:16;;;;;;;2.93;2.73;;;19.60;99.90;;;24.10;nan;100770.22;4991657;23;20696;-64
2022/10/16 09:45:55;;;;;;;3.10;2.77;;;21.00;99.90;;;25.16;nan;100772.41;5000606;28;21201;-65
2022/10/16 09:48:22;;;;;;;2.47;2.27;;;22.20;99.90;;;24.86;nan;100774.56;4979581;28;20704;-65
2022/10/16 09:51:04;;;;;;;3.00;2.80;;;22.60;99.90;;;25.37;nan;100772.25;4994133;28;20626;-64
2022/10/16 09:53:46;;;;;;;2.70;2.50;;;22.80;99.90;;;30.47;nan;100781.50;4974561;28;20635;-66
2022/10/16 09:56:29;;;;;;;2.27;2.17;;;25.00;99.90;;;35.64;nan;100771.41;4991126;28;20630;-67
2022/10/16 09:59:00;;;;;;;2.40;2.20;;;28.20;99.90;;;38.93;nan;100760.78;4989818;28;20623;-67
2022/10/16 10:01:37;;;;;;;2.60;2.40;;;31.20;99.90;;;40.43;nan;100763.97;4955310;28;20655;-68
2022/10/16 10:04:05;;;;;;;5.90;3.80;;;32.90;97.40;;;41.08;nan;100748.91;4984955;28;20675;-68
2022/10/16 10:06:41;;;;;;;6.47;3.87;;;34.30;93.30;;;40.64;nan;100749.56;4991171;28;21190;-68
2022/10/16 10:09:23;;;;;;;3.20;2.30;;;34.60;89.90;;;40.25;nan;100749.31;4991398;28;20664;-68
2022/10/16 10:12:04;;;;;;;2.20;2.10;;;35.10;83.80;;;42.78;nan;100739.94;4974541;28;20697;-67
2022/10/16 10:14:41;;;;;;;2.30;2.20;;;36.10;81.70;;;;;;4971225;28;20639;-68
2022/10/16 10:17:25;;;;;;;2.10;2.00;;;37.50;76.50;;;45.73;nan;100755.97;4978279;28;20610;-67
2022/10/16 10:20:02;;;;;;;1.93;1.80;;;38.60;71.50;;;43.88;nan;100760.19;4974132;28;21210;-67
2022/10/16 10:22:42;;;;;;;2.37;2.27;;;38.40;67.30;;;40.94;nan;100748.94;4974809;28;20680;-68
2022/10/16 10:25:36;;;;;;;2.13;1.93;;;37.20;67.80;;;39.71;nan;100746.47;4991183;28;20630;-68
2022/10/16 10:28:28;;;;;;;3.03;2.30;;;36.20;68.90;;;39.47;nan;100743.84;4974018;28;21200;-67
2022/10/16 10:31:14;;;;;;;2.23;2.10;;;35.40;70.10;;;37.66;nan;100733.31;4990997;28;20638;-68
2022/10/16 10:34:18;;;;;;;2.27;2.17;;;34.40;72.20;;;33.14;nan;100723.75;4974175;28;20626;-67
2022/10/16 10:36:54;;;;;;;4.60;2.17;;;32.10;76.20;;;31.07;nan;100721.84;4974326;28;20638;-68
2022/10/16 10:39:53;;;;;;;8.63;6.40;;;30.10;82.30;;;28.77;nan;100725.00;4990050;28;20626;-69
2022/10/16 10:42:57;;;;;;;3.10;2.90;;;28.40;90.40;;;27.58;nan;100719.19;4977290;28;20693;-67
2022/10/16 10:45:52;;;;;;;4.03;2.73;;;27.00;95.80;;;26.72;nan;100717.22;4976368;28;21311;-67
2022/10/16 10:48:45;;;;;;;3.20;2.87;;;26.00;99.90;;;26.27;nan;100711.00;4994082;28;21159;-67